Terminal Aerodrome Forecast
Issued by NWS Wilmington, OH

Current Version | Previous Version | Graphics & Text | Print | Product List | Glossary On
Versions: 1 2 3 4 5 6 7 8 9 10 11 12 13 14 15 16 17 18 19 20 21 22 23 24 25 26
000
FTUS41 KILN 031722
TAFILN
TAF
KILN 031722Z 0318/0418 33008KT P6SM VCSH BKN040
      TEMPO 0318/0321 5SM -SHRA OVC018
     FM040200 24004KT P6SM SCT040 BKN100
     FM041400 22012KT P6SM VCSH OVC040=

USA.gov is the U.S. government's official web portal to all federal, state and local government web resources and services.